createdAt,value
2019-01-08T00:00:12.528Z,28.42
2019-01-08T00:02:41.718Z,27.93
2019-01-08T00:05:10.170Z,32.65
2019-01-08T00:07:38.666Z,34.88
2019-01-08T00:10:07.099Z,34.30
2019-01-08T00:12:35.471Z,32.65
2019-01-08T00:15:04.079Z,35.05
2019-01-08T00:17:33.568Z,33.73
2019-01-08T00:20:02.299Z,29.57
2019-01-08T00:22:30.674Z,26.42
2019-01-08T00:24:59.021Z,37.03
2019-01-08T00:27:29.194Z,29.15
2019-01-08T00:29:57.550Z,34.80
2019-01-08T00:32:26.086Z,32.55
2019-01-08T00:34:54.549Z,29.60
2019-01-08T00:37:23.002Z,36.28
2019-01-08T00:39:51.355Z,36.05
2019-01-08T00:42:19.807Z,34.75
2019-01-08T00:44:48.555Z,33.05
2019-01-08T00:47:17.008Z,27.20
2019-01-08T00:49:45.452Z,28.25
2019-01-08T00:52:13.986Z,30.35
2019-01-08T00:54:42.523Z,33.95
2019-01-08T00:57:10.986Z,34.78
2019-01-08T00:59:39.322Z,30.92
2019-01-08T01:02:07.703Z,32.80
2019-01-08T01:04:36.050Z,31.40
2019-01-08T01:07:04.387Z,28.60
2019-01-08T01:09:32.839Z,36.48
2019-01-08T01:12:01.214Z,33.15
2019-01-08T01:14:30.778Z,30.12
2019-01-08T01:16:59.238Z,35.13
2019-01-08T01:19:27.591Z,33.98
2019-01-08T01:21:56.070Z,32.53
2019-01-08T01:24:26.236Z,32.93
2019-01-08T01:26:54.589Z,28.55
2019-01-08T01:29:23.047Z,35.23
2019-01-08T01:31:52.611Z,31.07
2019-01-08T01:34:20.947Z,29.90
2019-01-08T01:36:49.305Z,31.62
2019-01-08T01:39:17.641Z,33.28
2019-01-08T01:41:46.179Z,31.35
2019-01-08T01:44:14.521Z,30.35
2019-01-08T01:46:43.149Z,29.05
2019-01-08T01:49:11.530Z,34.73
2019-01-08T01:51:40.286Z,27.30
2019-01-08T01:54:08.640Z,36.28
2019-01-08T01:56:38.804Z,34.15
2019-01-08T01:59:21.723Z,34.90
2019-01-08T02:01:52.543Z,34.15
2019-01-08T02:04:20.883Z,29.92
2019-01-08T02:06:49.328Z,34.98
2019-01-08T02:09:17.780Z,34.58
2019-01-08T02:11:46.170Z,32.85
2019-01-08T02:14:14.520Z,37.30
2019-01-08T02:16:42.971Z,33.95
2019-01-08T02:19:11.430Z,38.53
2019-01-08T02:21:39.943Z,31.05
2019-01-08T02:24:08.388Z,31.82
2019-01-08T02:26:36.749Z,33.98
2019-01-08T02:29:05.127Z,31.27
2019-01-08T02:31:33.507Z,31.80
2019-01-08T02:34:02.062Z,33.45
2019-01-08T02:36:32.201Z,36.00
2019-01-08T02:39:01.249Z,37.73
2019-01-08T02:41:29.751Z,36.63
2019-01-08T02:43:58.371Z,34.88
2019-01-08T02:46:26.812Z,35.05
2019-01-08T02:48:55.228Z,34.25
2019-01-08T02:51:23.662Z,34.53
2019-01-08T02:53:52.016Z,34.10
2019-01-08T02:56:20.352Z,36.40
2019-01-08T02:58:48.796Z,38.15
2019-01-08T03:01:17.207Z,39.27
2019-01-08T03:03:45.557Z,36.00
2019-01-08T03:06:14.134Z,42.30
2019-01-08T03:08:42.582Z,42.13
2019-01-08T03:11:11.041Z,34.58
2019-01-08T03:13:39.480Z,36.40
2019-01-08T03:16:07.830Z,42.38
2019-01-08T03:18:36.172Z,35.88
2019-01-08T03:21:04.554Z,38.28
2019-01-08T03:23:33.029Z,40.55
2019-01-08T03:26:01.478Z,39.23
2019-01-08T03:28:29.832Z,34.18
2019-01-08T03:30:58.273Z,38.15
2019-01-08T03:33:29.233Z,39.33
2019-01-08T03:35:57.574Z,37.98
2019-01-08T03:38:26.025Z,40.35
2019-01-08T03:40:54.617Z,41.08
2019-01-08T03:43:23.461Z,37.70
2019-01-08T03:45:51.908Z,37.85
2019-01-08T03:48:20.363Z,42.98
2019-01-08T03:50:48.749Z,40.55
2019-01-08T03:53:17.998Z,37.15
2019-01-08T03:55:48.149Z,42.78
2019-01-08T03:58:16.693Z,34.63
2019-01-08T04:00:45.176Z,37.20
2019-01-08T04:03:13.519Z,35.08
2019-01-08T04:05:41.881Z,41.70
2019-01-08T04:08:10.322Z,39.75
2019-01-08T04:10:38.687Z,42.17
2019-01-08T04:13:07.131Z,38.80
2019-01-08T04:15:35.488Z,41.37
2019-01-08T04:18:03.935Z,43.95
2019-01-08T04:20:32.499Z,39.40
2019-01-08T04:23:00.853Z,40.17
2019-01-08T04:25:29.205Z,42.60
2019-01-08T04:27:57.667Z,45.05
2019-01-08T04:30:26.050Z,44.13
2019-01-08T04:32:54.398Z,43.63
2019-01-08T04:35:22.835Z,40.20
2019-01-08T04:37:52.992Z,44.53
2019-01-08T04:40:21.575Z,44.95
2019-01-08T04:42:50.020Z,48.63
2019-01-08T04:45:18.363Z,38.65
2019-01-08T04:47:46.710Z,36.15
2019-01-08T04:50:15.318Z,41.40
2019-01-08T04:52:43.872Z,39.83
2019-01-08T04:55:12.216Z,37.23
2019-01-08T04:57:40.962Z,40.28
2019-01-08T05:00:27.326Z,32.40
2019-01-08T05:02:56.366Z,39.18
2019-01-08T05:05:25.722Z,35.78
2019-01-08T05:07:54.181Z,38.20
2019-01-08T05:10:22.528Z,39.08
2019-01-08T05:12:50.879Z,39.58
2019-01-08T05:15:19.319Z,44.73
2019-01-08T05:17:47.793Z,41.95
2019-01-08T05:20:16.152Z,51.45
2019-01-08T05:22:47.194Z,43.92
2019-01-08T05:25:15.563Z,45.55
2019-01-08T05:27:44.373Z,42.23
2019-01-08T05:30:14.574Z,38.55
2019-01-08T05:32:42.994Z,44.98
2019-01-08T05:35:11.350Z,40.92
2019-01-08T05:37:41.495Z,41.02
2019-01-08T05:40:09.943Z,44.65
2019-01-08T05:42:40.192Z,40.43
2019-01-08T05:45:08.563Z,39.15
2019-01-08T05:47:37.107Z,43.20
2019-01-08T05:50:06.204Z,41.08
2019-01-08T05:52:35.024Z,45.12
2019-01-08T05:55:03.719Z,37.85
2019-01-08T05:57:32.564Z,40.03
2019-01-08T06:00:01.029Z,40.43
2019-01-08T06:02:29.547Z,41.23
2019-01-08T06:04:58.105Z,43.00
2019-01-08T06:07:26.456Z,43.40
2019-01-08T06:09:54.919Z,53.10
2019-01-08T06:12:23.453Z,44.58
2019-01-08T06:14:51.799Z,51.18
2019-01-08T06:17:20.647Z,53.35
2019-01-08T06:19:49.007Z,49.53
2019-01-08T06:22:18.507Z,51.92
2019-01-08T06:24:46.942Z,46.20
2019-01-08T06:27:16.496Z,45.40
2019-01-08T06:29:44.948Z,44.67
2019-01-08T06:32:13.347Z,50.95
2019-01-08T06:34:43.204Z,48.60
2019-01-08T06:37:11.658Z,47.20
2019-01-08T06:39:40.120Z,42.62
2019-01-08T06:42:10.290Z,45.48
2019-01-08T06:44:38.628Z,51.50
2019-01-08T06:47:07.081Z,53.30
2019-01-08T06:49:37.235Z,49.18
2019-01-08T06:52:05.799Z,47.13
2019-01-08T06:54:34.239Z,44.27
2019-01-08T06:57:02.608Z,41.42
2019-01-08T06:59:31.035Z,44.45
2019-01-08T07:01:59.410Z,45.43
2019-01-08T07:04:27.969Z,43.90
2019-01-08T07:06:56.516Z,45.28
2019-01-08T07:09:24.973Z,44.85
2019-01-08T07:11:53.401Z,44.23
2019-01-08T07:14:21.855Z,44.10
2019-01-08T07:16:50.308Z,45.30
2019-01-08T07:19:18.971Z,38.58
2019-01-08T07:21:48.444Z,43.98
2019-01-08T07:24:16.906Z,45.43
2019-01-08T07:26:45.258Z,41.75
2019-01-08T07:29:13.622Z,43.13
2019-01-08T07:31:42.004Z,47.05
2019-01-08T07:34:11.864Z,43.30
2019-01-08T07:36:40.216Z,38.67
2019-01-08T07:39:08.581Z,44.70
2019-01-08T07:41:37.179Z,47.33
2019-01-08T07:44:05.626Z,40.98
2019-01-08T07:46:33.981Z,43.60
2019-01-08T07:49:02.330Z,46.85
2019-01-08T07:51:30.871Z,38.42
2019-01-08T07:53:59.357Z,41.30
2019-01-08T07:56:27.695Z,43.33
2019-01-08T07:58:56.254Z,44.93
2019-01-08T08:01:24.763Z,37.93
2019-01-08T08:03:53.395Z,39.83
2019-01-08T08:06:22.030Z,43.45
2019-01-08T08:08:50.401Z,46.55
2019-01-08T08:11:18.776Z,44.80
2019-01-08T08:13:47.346Z,46.28
2019-01-08T08:16:15.786Z,44.35
2019-01-08T08:18:45.944Z,44.18
2019-01-08T08:21:14.352Z,48.87
2019-01-08T08:23:42.811Z,39.98
2019-01-08T08:26:11.226Z,42.62
2019-01-08T08:28:39.712Z,45.90
2019-01-08T08:31:08.203Z,41.55
2019-01-08T08:33:36.650Z,47.73
2019-01-08T08:36:05.007Z,46.92
2019-01-08T08:38:34.045Z,45.67
2019-01-08T08:41:02.448Z,41.88
2019-01-08T08:43:30.988Z,47.48
2019-01-08T08:45:59.334Z,44.98
2019-01-08T08:48:27.672Z,42.50
2019-01-08T08:50:56.272Z,44.35
2019-01-08T08:53:26.044Z,43.58
2019-01-08T08:55:54.400Z,48.05
2019-01-08T08:58:22.734Z,46.53
2019-01-08T09:00:51.517Z,44.48
2019-01-08T09:03:20.194Z,41.90
2019-01-08T09:05:48.636Z,42.13
2019-01-08T09:08:17.078Z,45.40
2019-01-08T09:10:46.528Z,44.27
2019-01-08T09:13:14.880Z,46.42
2019-01-08T09:15:43.220Z,42.03
2019-01-08T09:18:12.870Z,43.85
2019-01-08T09:20:41.507Z,47.85
2019-01-08T09:23:09.877Z,44.10
2019-01-08T09:25:38.449Z,50.43
2019-01-08T09:28:07.064Z,44.95
2019-01-08T09:30:35.611Z,44.40
2019-01-08T09:33:04.086Z,50.50
2019-01-08T09:35:32.526Z,41.50
2019-01-08T09:38:00.983Z,45.95
2019-01-08T09:40:29.535Z,44.42
2019-01-08T09:42:59.682Z,49.88
2019-01-08T09:45:28.047Z,39.15
2019-01-08T09:47:56.488Z,47.95
2019-01-08T09:50:24.947Z,43.35
2019-01-08T09:52:53.292Z,44.75
2019-01-08T09:55:21.647Z,41.25
2019-01-08T09:57:49.990Z,41.23
2019-01-08T10:00:25.564Z,42.43
2019-01-08T10:02:54.003Z,44.42
2019-01-08T10:05:22.433Z,41.85
2019-01-08T10:07:50.813Z,43.65
2019-01-08T10:10:19.257Z,43.02
2019-01-08T10:12:47.797Z,45.80
2019-01-08T10:15:16.361Z,42.98
2019-01-08T10:17:44.804Z,45.50
2019-01-08T10:20:13.239Z,46.53
2019-01-08T10:22:41.668Z,41.23
2019-01-08T10:25:10.100Z,42.55
2019-01-08T10:27:38.454Z,46.73
2019-01-08T10:30:09.036Z,44.45
2019-01-08T10:32:38.327Z,45.38
2019-01-08T10:35:06.797Z,46.53
2019-01-08T10:37:35.131Z,40.23
2019-01-08T10:40:05.025Z,46.90
2019-01-08T10:42:33.687Z,43.63
2019-01-08T10:45:02.155Z,43.23
2019-01-08T10:47:30.809Z,47.50
2019-01-08T10:49:59.180Z,45.70
2019-01-08T10:52:27.775Z,42.38
2019-01-08T10:54:57.941Z,47.60
2019-01-08T10:57:26.392Z,44.55
2019-01-08T10:59:54.866Z,48.73
2019-01-08T11:02:23.343Z,49.95
2019-01-08T11:04:51.700Z,49.45
2019-01-08T11:07:20.153Z,43.45
2019-01-08T11:09:48.995Z,43.58
2019-01-08T11:12:17.411Z,50.98
2019-01-08T11:14:45.848Z,48.75
2019-01-08T11:17:14.912Z,46.77
2019-01-08T11:19:43.244Z,47.53
2019-01-08T11:22:11.627Z,47.88
2019-01-08T11:24:39.980Z,51.68
2019-01-08T11:27:08.333Z,50.40
2019-01-08T11:29:36.788Z,40.98
2019-01-08T11:32:05.244Z,49.70
2019-01-08T11:34:33.606Z,47.70
2019-01-08T11:37:02.948Z,47.85
2019-01-08T11:39:31.411Z,46.00
2019-01-08T11:41:59.787Z,49.85
2019-01-08T11:44:28.357Z,53.25
2019-01-08T11:46:56.811Z,52.55
2019-01-08T11:49:25.256Z,45.40
2019-01-08T11:51:53.703Z,43.80
2019-01-08T11:54:22.065Z,47.15
2019-01-08T11:56:50.511Z,49.85
2019-01-08T11:59:26.913Z,53.45
2019-01-08T12:01:57.731Z,50.45
2019-01-08T12:04:26.139Z,43.95
2019-01-08T12:06:54.482Z,58.17
2019-01-08T12:09:23.242Z,47.65
2019-01-08T12:11:51.751Z,45.92
2019-01-08T12:14:21.789Z,45.70
2019-01-08T12:16:50.237Z,51.45
2019-01-08T12:19:18.678Z,59.03
2019-01-08T12:21:47.142Z,52.33
2019-01-08T12:24:15.792Z,54.23
2019-01-08T12:26:44.276Z,48.00
2019-01-08T12:29:12.709Z,48.45
2019-01-08T12:31:41.375Z,51.37
2019-01-08T12:34:10.164Z,51.55
2019-01-08T12:36:38.516Z,51.65
2019-01-08T12:39:08.514Z,48.68
2019-01-08T12:41:36.913Z,58.73
2019-01-08T12:44:05.357Z,56.10
2019-01-08T12:46:33.829Z,43.52
2019-01-08T12:49:02.173Z,48.28
2019-01-08T12:51:30.699Z,54.25
2019-01-08T12:53:59.417Z,52.38
2019-01-08T12:56:29.576Z,61.28
2019-01-08T12:58:58.142Z,47.90
2019-01-08T13:01:26.765Z,44.98
2019-01-08T13:03:55.106Z,53.58
2019-01-08T13:06:23.452Z,49.50
2019-01-08T13:08:51.909Z,48.35
2019-01-08T13:11:20.391Z,50.12
2019-01-08T13:13:48.850Z,54.73
2019-01-08T13:16:19.002Z,46.92
2019-01-08T13:18:47.465Z,55.60
2019-01-08T13:21:16.000Z,44.55
2019-01-08T13:23:44.470Z,50.90
2019-01-08T13:26:12.914Z,45.55
2019-01-08T13:28:41.495Z,52.83
2019-01-08T13:31:10.036Z,54.40
2019-01-08T13:33:38.424Z,41.65
2019-01-08T13:36:07.512Z,53.13
2019-01-08T13:38:36.071Z,47.45
2019-01-08T13:41:04.640Z,49.77
2019-01-08T13:43:36.938Z,46.23
2019-01-08T13:46:05.405Z,43.13
2019-01-08T13:48:33.758Z,50.08
2019-01-08T13:51:02.327Z,46.25
2019-01-08T13:53:30.792Z,45.97
2019-01-08T13:55:59.245Z,49.85
2019-01-08T13:58:27.632Z,45.40
2019-01-08T14:00:56.195Z,42.20
2019-01-08T14:03:25.258Z,43.25
2019-01-08T14:05:53.626Z,43.25
2019-01-08T14:08:21.995Z,49.55
2019-01-08T14:10:56.434Z,43.42
2019-01-08T14:13:21.242Z,45.15
2019-01-08T14:15:49.616Z,44.88
2019-01-08T14:18:18.278Z,46.40
2019-01-08T14:20:46.656Z,48.23
2019-01-08T14:23:15.007Z,38.40
2019-01-08T14:25:48.074Z,46.63
2019-01-08T14:28:17.432Z,47.53
2019-01-08T14:30:45.782Z,46.55
2019-01-08T14:33:14.261Z,46.42
2019-01-08T14:35:42.814Z,47.43
2019-01-08T14:38:12.693Z,59.00
2019-01-08T14:40:41.416Z,46.50
2019-01-08T14:43:14.186Z,50.03
2019-01-08T14:45:40.669Z,44.80
2019-01-08T14:48:09.065Z,57.98
2019-01-08T14:50:37.600Z,48.25
2019-01-08T14:53:07.778Z,52.35
2019-01-08T14:55:37.336Z,44.20
2019-01-08T14:58:05.983Z,45.83
2019-01-08T15:00:35.552Z,41.25
2019-01-08T15:03:04.020Z,42.95
2019-01-08T15:05:34.202Z,40.83
2019-01-08T15:08:02.554Z,42.50
2019-01-08T15:10:31.213Z,38.65
2019-01-08T15:12:59.673Z,45.78
2019-01-08T15:15:28.059Z,45.52
2019-01-08T15:17:56.515Z,44.25
2019-01-08T15:20:24.858Z,40.65
2019-01-08T15:22:53.219Z,46.77
2019-01-08T15:25:21.571Z,44.58
2019-01-08T15:27:50.136Z,43.10
2019-01-08T15:30:18.488Z,47.48
2019-01-08T15:32:46.930Z,38.95
2019-01-08T15:35:15.295Z,41.60
2019-01-08T15:37:43.652Z,41.02
2019-01-08T15:40:12.128Z,39.53
2019-01-08T15:42:40.540Z,44.80
2019-01-08T15:45:10.102Z,46.80
2019-01-08T15:47:38.912Z,40.48
2019-01-08T15:50:07.530Z,45.20
2019-01-08T15:52:36.071Z,41.40
2019-01-08T15:55:04.777Z,44.38
2019-01-08T15:57:34.956Z,46.08
2019-01-08T16:00:04.334Z,51.70
2019-01-08T16:02:33.025Z,45.48
2019-01-08T16:05:01.409Z,51.53
2019-01-08T16:07:29.989Z,53.05
2019-01-08T16:09:58.436Z,47.62
2019-01-08T16:12:26.856Z,48.60
2019-01-08T16:14:55.265Z,48.98
2019-01-08T16:17:23.617Z,44.13
2019-01-08T16:19:51.980Z,46.90
2019-01-08T16:22:20.514Z,49.08
2019-01-08T16:24:48.910Z,49.98
2019-01-08T16:27:17.253Z,46.80
2019-01-08T16:29:46.103Z,45.48
2019-01-08T16:32:16.140Z,47.08
2019-01-08T16:34:44.737Z,47.35
2019-01-08T16:37:13.350Z,44.40
2019-01-08T16:39:41.839Z,48.78
2019-01-08T16:42:10.484Z,50.50
2019-01-08T16:44:38.819Z,50.70
2019-01-08T16:47:07.472Z,45.83
2019-01-08T16:49:35.823Z,50.75
2019-01-08T16:52:06.022Z,47.23
2019-01-08T16:54:34.484Z,44.08
2019-01-08T16:57:03.028Z,45.78
2019-01-08T16:59:31.622Z,41.10
2019-01-08T17:02:00.036Z,43.17
2019-01-08T17:04:28.489Z,43.23
2019-01-08T17:06:56.854Z,47.08
2019-01-08T17:09:25.303Z,48.73
2019-01-08T17:11:53.805Z,51.48
2019-01-08T17:14:22.150Z,45.23
2019-01-08T17:16:50.734Z,47.15
2019-01-08T17:19:19.109Z,44.23
2019-01-08T17:21:47.814Z,44.67
2019-01-08T17:24:16.495Z,42.13
2019-01-08T17:26:44.933Z,41.70
2019-01-08T17:29:13.295Z,46.63
2019-01-08T17:31:41.687Z,48.68
2019-01-08T17:34:10.055Z,53.15
2019-01-08T17:36:38.403Z,53.92
2019-01-08T17:39:07.388Z,53.05
2019-01-08T17:41:36.827Z,49.95
2019-01-08T17:44:05.208Z,55.65
2019-01-08T17:46:33.640Z,48.48
2019-01-08T17:49:03.000Z,46.63
2019-01-08T17:51:31.474Z,52.05
2019-01-08T17:54:01.239Z,44.25
2019-01-08T17:56:29.610Z,41.00
2019-01-08T17:59:26.503Z,46.20
2019-01-08T18:02:03.025Z,42.73
2019-01-08T18:04:31.600Z,43.13
2019-01-08T18:07:02.989Z,49.42
2019-01-08T18:09:31.653Z,39.67
2019-01-08T18:12:02.137Z,41.55
2019-01-08T18:14:30.740Z,44.93
2019-01-08T18:16:59.300Z,41.30
2019-01-08T18:19:27.967Z,39.30
2019-01-08T18:21:57.538Z,41.30
2019-01-08T18:24:25.930Z,39.13
2019-01-08T18:26:54.294Z,39.65
2019-01-08T18:29:22.768Z,46.53
2019-01-08T18:31:51.438Z,50.45
2019-01-08T18:34:20.128Z,51.08
2019-01-08T18:36:48.618Z,51.25
2019-01-08T18:39:18.007Z,49.05
2019-01-08T18:41:47.697Z,56.00
2019-01-08T18:44:17.618Z,46.35
2019-01-08T18:46:46.263Z,49.75
2019-01-08T18:49:14.713Z,47.50
2019-01-08T18:51:43.503Z,44.98
2019-01-08T18:54:11.993Z,53.90
2019-01-08T18:56:40.384Z,49.10
2019-01-08T18:59:13.468Z,51.92
2019-01-08T19:01:42.557Z,46.13
2019-01-08T19:04:11.585Z,52.05
2019-01-08T19:06:40.079Z,46.23
2019-01-08T19:09:33.473Z,50.85
2019-01-08T19:12:09.928Z,47.10
2019-01-08T19:14:42.107Z,51.08
2019-01-08T19:17:10.689Z,44.33
2019-01-08T19:19:39.280Z,52.62
2019-01-08T19:22:08.152Z,56.73
2019-01-08T19:24:36.725Z,58.98
2019-01-08T19:27:05.727Z,58.75
2019-01-08T19:29:34.591Z,58.60
2019-01-08T19:32:03.533Z,57.33
2019-01-08T19:34:34.388Z,67.35
2019-01-08T19:37:06.991Z,63.52
2019-01-08T19:39:38.429Z,50.30
2019-01-08T19:42:10.196Z,57.93
2019-01-08T19:44:38.868Z,59.73
2019-01-08T19:47:10.318Z,57.23
2019-01-08T19:49:38.821Z,62.50
2019-01-08T19:52:07.768Z,58.48
2019-01-08T19:54:36.641Z,56.20
2019-01-08T19:57:05.876Z,60.28
2019-01-08T19:59:34.832Z,44.53
2019-01-08T20:02:03.855Z,44.33
2019-01-08T20:04:36.141Z,62.20
2019-01-08T20:07:04.866Z,65.15
2019-01-08T20:09:35.232Z,60.70
2019-01-08T20:12:03.866Z,46.83
2019-01-08T20:14:33.210Z,47.15
2019-01-08T20:17:02.430Z,54.27
2019-01-08T20:19:31.075Z,51.30
2019-01-08T20:21:59.888Z,50.00
2019-01-08T20:24:28.608Z,46.90
2019-01-08T20:27:00.431Z,59.05
2019-01-08T20:29:28.999Z,51.08
2019-01-08T20:31:57.914Z,49.88
2019-01-08T20:34:27.268Z,54.65
2019-01-08T20:36:58.063Z,64.50
2019-01-08T20:39:27.079Z,58.02
2019-01-08T20:41:56.299Z,64.27
2019-01-08T20:44:24.861Z,60.60
2019-01-08T20:46:54.858Z,62.05
2019-01-08T20:49:24.597Z,65.28
2019-01-08T20:51:53.327Z,51.40
2019-01-08T20:54:21.870Z,45.65
2019-01-08T20:56:50.594Z,48.40
2019-01-08T20:59:27.529Z,42.55
2019-01-08T21:01:56.309Z,39.53
2019-01-08T21:04:25.511Z,41.65
2019-01-08T21:06:54.949Z,44.38
2019-01-08T21:09:23.979Z,42.27
2019-01-08T21:11:53.185Z,37.08
2019-01-08T21:14:21.766Z,36.35
2019-01-08T21:16:50.241Z,41.88
2019-01-08T21:19:19.122Z,37.15
2019-01-08T21:21:48.873Z,33.25
2019-01-08T21:24:17.768Z,35.23
2019-01-08T21:26:46.236Z,33.73
2019-01-08T21:29:14.687Z,35.58
2019-01-08T21:31:44.895Z,34.92
2019-01-08T21:34:14.665Z,39.40
2019-01-08T21:36:43.019Z,33.28
2019-01-08T21:39:11.373Z,40.70
2019-01-08T21:41:39.900Z,35.15
2019-01-08T21:44:08.368Z,36.20
2019-01-08T21:46:37.440Z,36.30
2019-01-08T21:49:06.109Z,35.40
2019-01-08T21:51:34.538Z,36.05
2019-01-08T21:54:03.623Z,39.55
2019-01-08T21:56:32.071Z,35.33
2019-01-08T21:59:00.938Z,37.28
2019-01-08T22:01:29.485Z,38.70
2019-01-08T22:03:58.849Z,40.92
2019-01-08T22:06:27.200Z,39.88
2019-01-08T22:08:55.747Z,37.58
2019-01-08T22:11:24.227Z,33.88
2019-01-08T22:13:52.668Z,34.58
2019-01-08T22:16:21.122Z,42.27
2019-01-08T22:18:49.561Z,33.13
2019-01-08T22:21:18.073Z,29.02
2019-01-08T22:23:46.554Z,28.30
2019-01-08T22:26:16.483Z,33.00
2019-01-08T22:28:45.653Z,27.82
2019-01-08T22:31:14.018Z,27.65
2019-01-08T22:33:42.388Z,27.93
2019-01-08T22:36:10.855Z,29.63
2019-01-08T22:38:39.217Z,33.60
2019-01-08T22:41:08.247Z,30.20
2019-01-08T22:43:37.407Z,28.35
2019-01-08T22:46:05.768Z,28.27
2019-01-08T22:48:34.311Z,29.20
2019-01-08T22:51:02.834Z,30.70
2019-01-08T22:53:31.180Z,26.70
2019-01-08T22:55:59.523Z,34.83
2019-01-08T22:58:28.080Z,34.23
2019-01-08T23:01:16.340Z,31.02
2019-01-08T23:03:44.709Z,28.55
2019-01-08T23:06:13.055Z,29.72
2019-01-08T23:08:41.486Z,30.60
2019-01-08T23:11:10.010Z,33.63
2019-01-08T23:13:38.366Z,26.20
2019-01-08T23:16:06.711Z,35.52
2019-01-08T23:18:35.046Z,27.85
2019-01-08T23:21:03.444Z,27.50
2019-01-08T23:23:31.971Z,27.32
2019-01-08T23:26:00.454Z,26.05
2019-01-08T23:28:28.810Z,26.48
2019-01-08T23:30:57.180Z,23.02
2019-01-08T23:33:25.559Z,33.78
2019-01-08T23:35:54.503Z,27.50
2019-01-08T23:38:22.868Z,32.03
2019-01-08T23:40:51.255Z,36.98
2019-01-08T23:43:19.603Z,25.45
2019-01-08T23:45:49.735Z,32.53
2019-01-08T23:48:18.082Z,28.30
2019-01-08T23:50:46.614Z,31.40
2019-01-08T23:53:43.922Z,31.45
2019-01-08T23:56:12.271Z,29.23
2019-01-08T23:58:42.439Z,29.52
